Aérodrome :
LOGIN :

S'inscrire | Disclaimer

   EN    FR    IT 

 










Légende :    VFR   VFR Marginal   IFR   IFR Intensif   IFR Très Intensif
Visi : 
Plafond : 
>= 8 km
>= 3000ft
5 à 8 km
1000 à 3000 ft
1500m à 5 km
500 à 1000 ft
800 à 1500m
200 à 500 ft
< 800m
< 200 ft
Symboles :   Orages  Brouillard  Fortes neiges  Fortes précipitations  Vent > 20 kt
SIGMETs :   Divers  Orages  Givrage  Turbulence  Onde Orograph.  Cendres Volcan.







- Altitude de l'aérodrome : 505 ft
- Code IATA : SXB
- Voir les cartes d'approche


LFST - Strasbourg

DERNIER METAR :
  • 181500Z AUTO 17006KT 130V200 CAVOK 28/12 Q1012 TEMPO FEW060CB BKN080

METARs EXPIRÉS :
  • 181430Z AUTO 18006KT 090V240 CAVOK 28/12 Q1012 TEMPO FEW060CB BKN080
  • 181400Z AUTO 17006KT 120V210 CAVOK 28/12 Q1012 TEMPO FEW060CB BKN080
  • 181330Z AUTO 20006KT 130V250 CAVOK 28/12 Q1012 TEMPO FEW060CB BKN080
  • 181300Z AUTO 16003KT 050V220 CAVOK 28/11 Q1012 TEMPO FEW060CB BKN080
  • 181230Z AUTO 25006KT 180V280 CAVOK 28/11 Q1012 TEMPO FEW060CB BKN080

TAF TAF LFST
Valide du 18 à 12h jusqu'au 19 à 12h UTC


181100Z 1812/1912 VRB04KT CAVOK
TEMPO 1812/1819 FEW060TCU
PROB40
TEMPO 1813/1818 24011G21KT FEW060CB BKN080
Pas de NOTAMs connus pour ce terrain.



MET'MAP, la Météo Aéronautique d'un coup d'oeil ! - Copyright ORBIFLY Décembre 2007 - Disclaimer

ORBIFLY MET'MAP TEAM :

Programmation & Développement : Alexandra Zaïnal
Conception & Développement : Baudouin d'Aumeries
Co-Programmation & Développement : Marc-Olivier Méhu
Soutien technique & logistique : Manuel Goepfert

Contact : metmap@orbifly.com




SOURCES & CREDITS :

   NOAA